createdAt,value
2019-05-18T00:00:54.119Z,39.38
2019-05-18T00:03:02.014Z,32.30
2019-05-18T00:05:10.344Z,34.00
2019-05-18T00:07:18.136Z,33.65
2019-05-18T00:09:26.035Z,34.03
2019-05-18T00:11:34.325Z,35.15
2019-05-18T00:13:42.279Z,34.27
2019-05-18T00:15:51.308Z,33.98
2019-05-18T00:17:59.231Z,33.70
2019-05-18T00:20:11.105Z,32.08
2019-05-18T00:22:18.986Z,33.83
2019-05-18T00:24:26.903Z,34.80
2019-05-18T00:26:34.789Z,33.05
2019-05-18T00:28:43.814Z,34.70
2019-05-18T00:30:52.046Z,31.25
2019-05-18T00:32:59.985Z,35.88
2019-05-18T00:35:09.705Z,33.08
2019-05-18T00:37:19.074Z,34.90
2019-05-18T00:39:27.137Z,34.15
2019-05-18T00:41:36.128Z,36.03
2019-05-18T00:43:44.038Z,34.10
2019-05-18T00:45:52.027Z,37.67
2019-05-18T00:48:00.559Z,34.20
2019-05-18T00:50:09.076Z,36.28
2019-05-18T00:52:16.931Z,41.50
2019-05-18T00:54:24.821Z,51.75
2019-05-18T00:56:32.744Z,51.28
2019-05-18T00:58:40.702Z,34.48
2019-05-18T01:00:48.591Z,38.67
2019-05-18T01:02:57.022Z,38.80
2019-05-18T01:05:06.233Z,28.40
2019-05-18T01:07:14.092Z,46.88
2019-05-18T01:09:22.033Z,35.55
2019-05-18T01:11:30.087Z,25.77
2019-05-18T01:13:38.108Z,28.90
2019-05-18T01:15:46.028Z,26.95
2019-05-18T01:17:57.394Z,43.80
2019-05-18T01:20:03.742Z,80.72
2019-05-18T01:22:12.699Z,70.75
2019-05-18T01:24:20.686Z,71.25
2019-05-18T01:26:28.572Z,37.30
2019-05-18T01:28:36.603Z,35.38
2019-05-18T01:30:46.375Z,32.55
2019-05-18T01:32:54.365Z,34.98
2019-05-18T01:35:02.307Z,29.37
2019-05-18T01:37:10.327Z,34.23
2019-05-18T01:39:18.344Z,39.60
2019-05-18T01:41:26.378Z,52.27
2019-05-18T01:43:34.270Z,43.50
2019-05-18T01:45:42.159Z,33.98
2019-05-18T01:47:50.085Z,34.55
2019-05-18T01:49:58.084Z,29.55
2019-05-18T01:52:06.066Z,32.25
2019-05-18T01:54:15.666Z,32.03
2019-05-18T01:56:23.883Z,33.65
2019-05-18T01:58:33.877Z,32.67
2019-05-18T02:00:41.821Z,31.82
2019-05-18T02:02:51.338Z,30.57
2019-05-18T02:04:59.237Z,27.45
2019-05-18T02:07:07.228Z,29.20
2019-05-18T02:09:15.162Z,29.55
2019-05-18T02:11:23.224Z,27.85
2019-05-18T02:13:31.212Z,25.30
2019-05-18T02:15:39.104Z,29.10
2019-05-18T02:17:47.062Z,25.32
2019-05-18T02:19:54.996Z,28.32
2019-05-18T02:22:02.955Z,27.42
2019-05-18T02:24:10.980Z,28.75
2019-05-18T02:26:18.945Z,25.77
2019-05-18T02:28:28.241Z,25.70
2019-05-18T02:30:36.474Z,25.30
2019-05-18T02:32:44.412Z,25.20
2019-05-18T02:34:52.302Z,22.70
2019-05-18T02:37:00.263Z,22.05
2019-05-18T02:39:09.592Z,22.90
2019-05-18T02:41:18.043Z,26.97
2019-05-18T02:43:25.929Z,26.20
2019-05-18T02:45:34.908Z,22.55
2019-05-18T02:47:42.806Z,24.45
2019-05-18T02:49:50.705Z,22.98
2019-05-18T02:51:58.714Z,27.45
2019-05-18T02:54:06.661Z,26.40
2019-05-18T02:56:14.558Z,23.15
2019-05-18T02:58:22.475Z,23.05
2019-05-18T03:00:31.268Z,24.12
2019-05-18T03:02:39.160Z,25.08
2019-05-18T03:04:47.231Z,24.10
2019-05-18T03:06:56.020Z,23.42
2019-05-18T03:09:05.755Z,24.47
2019-05-18T03:11:13.645Z,25.80
2019-05-18T03:13:22.033Z,26.15
2019-05-18T03:15:30.160Z,26.75
2019-05-18T03:17:38.202Z,25.72
2019-05-18T03:19:46.157Z,26.50
2019-05-18T03:21:54.143Z,24.70
2019-05-18T03:24:02.142Z,26.33
2019-05-18T03:26:10.030Z,24.87
2019-05-18T03:28:17.927Z,25.02
2019-05-18T03:30:25.909Z,28.98
2019-05-18T03:32:33.817Z,25.97
2019-05-18T03:34:41.706Z,28.62
2019-05-18T03:36:49.642Z,25.82
2019-05-18T03:38:58.006Z,26.57
2019-05-18T03:41:06.076Z,26.20
2019-05-18T03:43:13.990Z,31.35
2019-05-18T03:45:21.957Z,39.90
2019-05-18T03:47:29.913Z,34.70
2019-05-18T03:49:37.924Z,33.45
2019-05-18T03:51:45.989Z,31.40
2019-05-18T03:53:54.083Z,29.27
2019-05-18T03:56:02.200Z,24.05
2019-05-18T03:58:10.183Z,20.32
2019-05-18T04:00:19.653Z,20.72
2019-05-18T04:02:28.194Z,20.43
2019-05-18T04:04:36.081Z,24.95
2019-05-18T04:06:43.972Z,19.35
2019-05-18T04:08:51.994Z,16.45
2019-05-18T04:10:59.945Z,18.15
2019-05-18T04:13:08.894Z,19.02
2019-05-18T04:15:17.053Z,17.25
2019-05-18T04:17:25.048Z,19.98
2019-05-18T04:19:45.810Z,18.00
2019-05-18T04:21:43.823Z,17.62
2019-05-18T04:23:51.712Z,19.07
2019-05-18T04:25:59.602Z,17.77
2019-05-18T04:28:07.620Z,17.77
2019-05-18T04:30:15.961Z,21.02
2019-05-18T04:32:23.917Z,19.65
2019-05-18T04:34:31.833Z,15.15
2019-05-18T04:36:39.785Z,17.07
2019-05-18T04:38:47.588Z,15.32
2019-05-18T04:40:55.511Z,16.02
2019-05-18T04:43:03.406Z,15.95
2019-05-18T04:45:11.530Z,18.42
2019-05-18T04:47:19.571Z,24.77
2019-05-18T04:49:27.655Z,19.07
2019-05-18T04:51:35.646Z,22.22
2019-05-18T04:53:43.577Z,17.65
2019-05-18T04:55:51.471Z,23.22
2019-05-18T04:58:00.834Z,19.30
2019-05-18T05:00:10.288Z,20.97
2019-05-18T05:02:18.572Z,17.00
2019-05-18T05:04:27.267Z,20.30
2019-05-18T05:06:35.688Z,16.50
2019-05-18T05:08:44.156Z,12.80
2019-05-18T05:10:52.547Z,15.48
2019-05-18T05:13:01.515Z,12.70
2019-05-18T05:15:10.155Z,13.53
2019-05-18T05:17:18.534Z,13.18
2019-05-18T05:19:26.452Z,13.80
2019-05-18T05:21:36.350Z,14.65
2019-05-18T05:23:44.615Z,15.35
2019-05-18T05:25:52.937Z,15.48
2019-05-18T05:28:01.396Z,17.70
2019-05-18T05:30:10.197Z,15.72
2019-05-18T05:32:18.197Z,15.30
2019-05-18T05:34:26.102Z,13.88
2019-05-18T05:36:34.376Z,15.58
2019-05-18T05:38:42.490Z,13.78
2019-05-18T05:40:50.954Z,14.03
2019-05-18T05:42:58.967Z,14.60
2019-05-18T05:45:07.875Z,12.18
2019-05-18T05:47:16.031Z,12.73
2019-05-18T05:49:23.924Z,12.80
2019-05-18T05:51:31.935Z,16.55
2019-05-18T05:53:39.927Z,18.60
2019-05-18T05:55:47.825Z,13.62
2019-05-18T05:57:55.954Z,12.15
2019-05-18T06:00:06.234Z,13.38
2019-05-18T06:02:14.526Z,13.43
2019-05-18T06:04:22.442Z,16.42
2019-05-18T06:06:31.398Z,15.28
2019-05-18T06:08:39.793Z,16.55
2019-05-18T06:10:48.429Z,19.12
2019-05-18T06:12:56.844Z,16.77
2019-05-18T06:15:07.153Z,12.58
2019-05-18T06:17:15.580Z,15.85
2019-05-18T06:19:23.910Z,15.83
2019-05-18T06:21:32.789Z,13.60
2019-05-18T06:23:41.212Z,14.95
2019-05-18T06:25:49.603Z,16.50
2019-05-18T06:27:57.897Z,14.60
2019-05-18T06:30:08.441Z,19.20
2019-05-18T06:32:16.335Z,14.85
2019-05-18T06:34:24.398Z,15.23
2019-05-18T06:36:32.617Z,12.28
2019-05-18T06:38:41.542Z,14.18
2019-05-18T06:40:49.478Z,14.05
2019-05-18T06:42:57.798Z,15.60
2019-05-18T06:45:10.138Z,10.70
2019-05-18T06:47:18.088Z,10.58
2019-05-18T06:49:26.100Z,9.20
2019-05-18T06:51:33.976Z,9.33
2019-05-18T06:53:42.354Z,10.23
2019-05-18T06:55:52.103Z,9.30
2019-05-18T06:58:01.099Z,8.68
2019-05-18T07:00:11.426Z,10.18
2019-05-18T07:02:19.326Z,10.95
2019-05-18T07:04:27.275Z,11.35
2019-05-18T07:06:36.308Z,9.15
2019-05-18T07:08:44.695Z,8.58
2019-05-18T07:10:53.558Z,13.90
2019-05-18T07:13:01.956Z,12.88
2019-05-18T07:15:10.758Z,18.92
2019-05-18T07:17:19.081Z,7.12
2019-05-18T07:19:27.237Z,17.05
2019-05-18T07:21:35.547Z,11.90
2019-05-18T07:23:44.007Z,10.45
2019-05-18T07:25:52.438Z,12.95
2019-05-18T07:28:00.546Z,20.35
2019-05-18T07:30:21.697Z,9.25
2019-05-18T07:32:29.981Z,13.98
2019-05-18T07:34:37.990Z,8.25
2019-05-18T07:36:47.432Z,9.98
2019-05-18T07:38:55.410Z,8.98
2019-05-18T07:41:03.626Z,8.15
2019-05-18T07:43:12.011Z,7.25
2019-05-18T07:45:20.781Z,8.30
2019-05-18T07:47:28.938Z,7.62
2019-05-18T07:49:36.918Z,8.48
2019-05-18T07:51:44.806Z,9.00
2019-05-18T07:53:52.710Z,7.72
2019-05-18T07:56:00.752Z,6.70
2019-05-18T07:58:09.352Z,7.08
2019-05-18T08:00:17.596Z,6.95
2019-05-18T08:02:25.484Z,7.25
2019-05-18T08:04:33.535Z,6.08
2019-05-18T08:06:41.461Z,7.67
2019-05-18T08:08:50.892Z,7.00
2019-05-18T08:10:58.890Z,6.83
2019-05-18T08:13:08.342Z,6.65
2019-05-18T08:15:16.976Z,7.60
2019-05-18T08:17:25.260Z,59.95
2019-05-18T08:19:34.240Z,11.93
2019-05-18T08:21:52.627Z,24.27
2019-05-18T08:23:52.397Z,6.85
2019-05-18T08:26:00.275Z,7.65
2019-05-18T08:28:09.276Z,7.65
2019-05-18T08:30:17.220Z,6.60
2019-05-18T08:32:25.141Z,13.08
2019-05-18T08:34:33.141Z,49.35
2019-05-18T08:36:42.465Z,42.58
2019-05-18T08:38:50.679Z,7.55
2019-05-18T08:40:58.858Z,6.87
2019-05-18T08:43:07.242Z,8.20
2019-05-18T08:45:17.047Z,8.60
2019-05-18T08:47:25.909Z,6.85
2019-05-18T08:49:33.979Z,6.55
2019-05-18T08:51:42.875Z,34.00
2019-05-18T08:53:51.248Z,7.70
2019-05-18T08:56:00.107Z,8.55
2019-05-18T08:58:08.646Z,7.20
2019-05-18T09:00:17.200Z,8.40
2019-05-18T09:02:25.484Z,10.18
2019-05-18T09:04:33.843Z,11.68
2019-05-18T09:06:43.117Z,11.85
2019-05-18T09:08:51.099Z,8.45
2019-05-18T09:10:59.178Z,10.03
2019-05-18T09:13:07.064Z,9.25
2019-05-18T09:15:15.972Z,23.60
2019-05-18T09:17:23.958Z,8.75
2019-05-18T09:19:32.327Z,16.25
2019-05-18T09:21:40.510Z,98.65
2019-05-18T09:23:51.808Z,23.87
2019-05-18T09:26:00.110Z,9.70
2019-05-18T09:28:08.399Z,9.78
2019-05-18T09:30:17.212Z,10.23
2019-05-18T09:32:25.091Z,11.43
2019-05-18T09:34:32.983Z,8.48
2019-05-18T09:36:42.484Z,10.03
2019-05-18T09:38:51.359Z,8.25
2019-05-18T09:40:59.367Z,10.28
2019-05-18T09:43:07.410Z,6.95
2019-05-18T09:45:17.827Z,8.08
2019-05-18T09:47:25.603Z,8.80
2019-05-18T09:49:33.777Z,14.13
2019-05-18T09:51:43.367Z,11.45
2019-05-18T09:53:52.239Z,11.28
2019-05-18T09:56:00.300Z,7.97
2019-05-18T09:58:08.710Z,11.33
2019-05-18T10:00:18.722Z,11.25
2019-05-18T10:02:27.001Z,8.68
2019-05-18T10:04:34.466Z,8.90
2019-05-18T10:06:40.938Z,15.18
2019-05-18T10:08:49.210Z,8.78
2019-05-18T10:10:57.191Z,6.62
2019-05-18T10:13:05.218Z,7.05
2019-05-18T10:15:13.802Z,6.75
2019-05-18T10:17:22.614Z,7.28
2019-05-18T10:19:30.549Z,8.28
2019-05-18T10:21:38.708Z,10.05
2019-05-18T10:23:46.765Z,8.40
2019-05-18T10:25:55.024Z,8.68
2019-05-18T10:28:03.454Z,6.55
2019-05-18T10:30:12.404Z,5.65
2019-05-18T10:32:20.785Z,11.95
2019-05-18T10:34:29.720Z,6.95
2019-05-18T10:36:37.708Z,8.45
2019-05-18T10:38:45.681Z,15.58
2019-05-18T10:40:53.587Z,10.43
2019-05-18T10:43:02.042Z,10.48
2019-05-18T10:45:11.232Z,12.05
2019-05-18T10:47:19.505Z,8.28
2019-05-18T10:49:27.744Z,8.35
2019-05-18T10:51:35.618Z,6.22
2019-05-18T10:53:43.762Z,11.78
2019-05-18T10:55:51.739Z,6.70
2019-05-18T10:57:59.792Z,8.30
2019-05-18T11:00:12.348Z,6.42
2019-05-18T11:02:20.411Z,9.15
2019-05-18T11:04:28.386Z,7.92
2019-05-18T11:06:39.169Z,10.03
2019-05-18T11:08:47.208Z,7.22
2019-05-18T11:10:56.163Z,10.78
2019-05-18T11:13:04.343Z,5.40
2019-05-18T11:15:13.989Z,9.25
2019-05-18T11:17:22.405Z,6.70
2019-05-18T11:19:30.337Z,6.70
2019-05-18T11:21:38.218Z,6.75
2019-05-18T11:23:48.129Z,8.93
2019-05-18T11:25:56.174Z,6.30
2019-05-18T11:28:04.441Z,10.85
2019-05-18T11:30:14.723Z,6.17
2019-05-18T11:32:23.003Z,9.33
2019-05-18T11:34:30.890Z,6.40
2019-05-18T11:36:38.766Z,6.55
2019-05-18T11:38:46.679Z,6.17
2019-05-18T11:40:54.730Z,9.80
2019-05-18T11:43:04.398Z,12.88
2019-05-18T11:45:16.834Z,8.43
2019-05-18T11:47:27.901Z,6.30
2019-05-18T11:49:37.102Z,6.58
2019-05-18T11:51:45.600Z,11.95
2019-05-18T11:53:58.411Z,9.43
2019-05-18T11:56:03.273Z,6.30
2019-05-18T11:58:11.345Z,8.98
2019-05-18T12:00:19.826Z,14.73
2019-05-18T12:02:27.710Z,7.08
2019-05-18T12:04:36.603Z,5.20
2019-05-18T12:06:44.577Z,4.92
2019-05-18T12:08:52.451Z,12.00
2019-05-18T12:11:00.435Z,6.97
2019-05-18T12:13:08.780Z,5.35
2019-05-18T12:15:19.252Z,35.40
2019-05-18T12:17:27.153Z,5.40
2019-05-18T12:19:36.300Z,18.77
2019-05-18T12:21:44.284Z,6.67
2019-05-18T12:23:52.294Z,7.72
2019-05-18T12:26:01.169Z,6.20
2019-05-18T12:28:09.433Z,5.33
2019-05-18T12:30:20.342Z,5.15
2019-05-18T12:32:30.067Z,6.70
2019-05-18T12:34:38.364Z,5.28
2019-05-18T12:36:46.778Z,5.25
2019-05-18T12:38:56.747Z,5.83
2019-05-18T12:41:07.517Z,6.35
2019-05-18T12:43:15.445Z,5.08
2019-05-18T12:45:24.670Z,10.00
2019-05-18T12:47:32.619Z,13.60
2019-05-18T12:49:40.700Z,6.62
2019-05-18T12:51:49.652Z,7.22
2019-05-18T12:53:57.782Z,15.43
2019-05-18T12:56:05.838Z,19.52
2019-05-18T12:58:15.093Z,18.42
2019-05-18T13:00:24.482Z,5.85
2019-05-18T13:02:32.710Z,9.35
2019-05-18T13:04:41.939Z,5.87
2019-05-18T13:06:50.360Z,10.95
2019-05-18T13:08:58.440Z,5.50
2019-05-18T13:11:07.115Z,5.62
2019-05-18T13:13:15.322Z,22.95
2019-05-18T13:15:23.919Z,11.43
2019-05-18T13:17:33.209Z,6.25
2019-05-18T13:19:41.159Z,5.35
2019-05-18T13:21:49.197Z,5.83
2019-05-18T13:23:57.179Z,7.97
2019-05-18T13:26:05.526Z,12.73
2019-05-18T13:28:13.499Z,5.35
2019-05-18T13:30:23.968Z,7.87
2019-05-18T13:32:31.829Z,10.63
2019-05-18T13:34:39.745Z,8.35
2019-05-18T13:36:48.100Z,6.03
2019-05-18T13:38:55.993Z,6.42
2019-05-18T13:41:04.538Z,5.97
2019-05-18T13:43:12.514Z,5.95
2019-05-18T13:45:21.029Z,5.45
2019-05-18T13:47:32.040Z,6.40
2019-05-18T13:49:40.322Z,17.62
2019-05-18T13:51:49.194Z,5.45
2019-05-18T13:53:57.138Z,5.37
2019-05-18T13:56:05.431Z,5.40
2019-05-18T13:58:13.414Z,5.72
2019-05-18T14:00:23.562Z,5.75
2019-05-18T14:02:31.545Z,5.97
2019-05-18T14:04:39.615Z,5.70
2019-05-18T14:06:47.536Z,6.58
2019-05-18T14:08:55.500Z,5.58
2019-05-18T14:11:03.971Z,7.83
2019-05-18T14:13:12.368Z,6.37
2019-05-18T14:15:23.025Z,5.78
2019-05-18T14:17:30.212Z,8.70
2019-05-18T14:19:38.124Z,8.48
2019-05-18T14:21:46.235Z,6.30
2019-05-18T14:23:55.492Z,6.58
2019-05-18T14:26:03.476Z,7.30
2019-05-18T14:28:11.429Z,10.82
2019-05-18T14:30:20.657Z,8.03
2019-05-18T14:32:28.567Z,6.05
2019-05-18T14:34:36.518Z,9.00
2019-05-18T14:36:44.557Z,5.62
2019-05-18T14:38:56.713Z,5.83
2019-05-18T14:41:02.644Z,6.58
2019-05-18T14:43:10.667Z,8.35
2019-05-18T14:45:19.466Z,6.45
2019-05-18T14:47:27.682Z,8.03
2019-05-18T14:49:35.999Z,7.25
2019-05-18T14:51:44.248Z,8.83
2019-05-18T14:53:52.632Z,10.80
2019-05-18T14:56:00.808Z,7.00
2019-05-18T14:58:09.618Z,17.73
2019-05-18T15:00:20.686Z,14.33
2019-05-18T15:02:28.659Z,20.72
2019-05-18T15:04:37.592Z,17.17
2019-05-18T15:06:45.484Z,45.73
2019-05-18T15:08:54.368Z,36.55
2019-05-18T15:11:02.809Z,40.00
2019-05-18T15:13:10.846Z,52.58
2019-05-18T15:15:19.046Z,62.45
2019-05-18T15:17:26.973Z,44.50
2019-05-18T15:19:35.129Z,54.50
2019-05-18T15:21:43.124Z,59.38
2019-05-18T15:23:51.069Z,46.92
2019-05-18T15:25:58.939Z,62.62
2019-05-18T15:28:07.101Z,103.05
2019-05-18T15:30:17.209Z,110.52
2019-05-18T15:32:25.629Z,91.02
2019-05-18T15:34:33.592Z,65.17
2019-05-18T15:36:41.610Z,59.00
2019-05-18T15:38:50.179Z,31.65
2019-05-18T15:40:58.436Z,38.13
2019-05-18T15:43:06.460Z,46.15
2019-05-18T15:45:14.722Z,60.58
2019-05-18T15:47:22.853Z,30.55
2019-05-18T15:49:30.763Z,12.95
2019-05-18T15:51:38.654Z,29.45
2019-05-18T15:53:46.644Z,25.10
2019-05-18T15:56:05.236Z,18.95
2019-05-18T15:58:04.314Z,14.20
2019-05-18T16:00:12.829Z,11.40
2019-05-18T16:02:21.286Z,9.28
2019-05-18T16:04:29.490Z,15.28
2019-05-18T16:06:38.528Z,8.95
2019-05-18T16:08:47.423Z,11.85
2019-05-18T16:10:57.361Z,14.10
2019-05-18T16:13:05.366Z,11.90
2019-05-18T16:15:14.737Z,12.15
2019-05-18T16:17:38.096Z,17.17
2019-05-18T16:19:32.274Z,12.98
2019-05-18T16:21:40.353Z,7.80
2019-05-18T16:23:48.342Z,9.00
2019-05-18T16:25:56.222Z,13.20
2019-05-18T16:28:04.206Z,7.33
2019-05-18T16:30:12.754Z,9.98
2019-05-18T16:32:21.049Z,8.15
2019-05-18T16:34:28.987Z,8.93
2019-05-18T16:36:36.886Z,10.70
2019-05-18T16:38:44.885Z,8.35
2019-05-18T16:40:52.896Z,7.22
2019-05-18T16:43:01.767Z,12.30
2019-05-18T16:45:10.730Z,16.40
2019-05-18T16:47:19.902Z,16.95
2019-05-18T16:49:27.886Z,21.05
2019-05-18T16:51:35.880Z,11.80
2019-05-18T16:53:48.141Z,49.73
2019-05-18T16:55:54.687Z,33.40
2019-05-18T16:58:02.902Z,9.90
2019-05-18T17:00:16.231Z,7.37
2019-05-18T17:02:31.674Z,8.25
2019-05-18T17:04:34.484Z,8.60
2019-05-18T17:06:42.498Z,14.23
2019-05-18T17:08:50.481Z,15.13
2019-05-18T17:10:58.478Z,13.53
2019-05-18T17:13:06.870Z,18.85
2019-05-18T17:15:16.876Z,15.93
2019-05-18T17:17:25.133Z,16.42
2019-05-18T17:19:33.051Z,15.13
2019-05-18T17:21:41.052Z,13.78
2019-05-18T17:23:49.025Z,14.95
2019-05-18T17:25:56.967Z,20.65
2019-05-18T17:28:04.997Z,17.85
2019-05-18T17:30:13.367Z,15.43
2019-05-18T17:32:21.289Z,13.70
2019-05-18T17:34:29.249Z,12.58
2019-05-18T17:36:38.213Z,17.20
2019-05-18T17:38:46.269Z,13.62
2019-05-18T17:40:54.496Z,15.18
2019-05-18T17:43:02.499Z,15.80
2019-05-18T17:45:11.900Z,11.53
2019-05-18T17:47:19.803Z,23.55
2019-05-18T17:49:28.072Z,20.57
2019-05-18T17:51:36.387Z,13.72
2019-05-18T17:53:44.824Z,14.53
2019-05-18T17:55:52.820Z,15.50
2019-05-18T17:58:00.835Z,19.10
2019-05-18T18:00:11.173Z,30.02
2019-05-18T18:02:19.063Z,30.20
2019-05-18T18:04:27.095Z,38.60
2019-05-18T18:06:35.460Z,51.53
2019-05-18T18:08:43.736Z,39.78
2019-05-18T18:10:51.723Z,42.88
2019-05-18T18:12:59.926Z,35.40
2019-05-18T18:15:09.298Z,32.95
2019-05-18T18:17:17.905Z,22.05
2019-05-18T18:19:25.893Z,25.00
2019-05-18T18:21:33.806Z,32.05
2019-05-18T18:23:41.719Z,47.27
2019-05-18T18:25:49.678Z,113.50
2019-05-18T18:27:57.612Z,60.38
2019-05-18T18:30:12.104Z,50.43
2019-05-18T18:32:20.471Z,37.55
2019-05-18T18:34:28.705Z,27.37
2019-05-18T18:36:36.636Z,26.70
2019-05-18T18:38:45.072Z,23.07
2019-05-18T18:40:54.316Z,27.13
2019-05-18T18:43:02.333Z,37.15
2019-05-18T18:45:11.283Z,28.67
2019-05-18T18:47:19.236Z,41.65
2019-05-18T18:49:27.290Z,30.75
2019-05-18T18:51:35.332Z,24.05
2019-05-18T18:53:44.192Z,20.92
2019-05-18T18:55:53.107Z,19.75
2019-05-18T18:58:02.491Z,19.12
2019-05-18T19:00:12.789Z,22.85
2019-05-18T19:02:20.900Z,24.37
2019-05-18T19:04:28.894Z,28.00
2019-05-18T19:06:36.954Z,49.03
2019-05-18T19:08:45.116Z,60.85
2019-05-18T19:10:53.073Z,60.67
2019-05-18T19:13:00.984Z,55.60
2019-05-18T19:15:10.613Z,48.98
2019-05-18T19:17:18.755Z,43.73
2019-05-18T19:19:26.958Z,48.52
2019-05-18T19:21:35.093Z,53.83
2019-05-18T19:23:43.077Z,64.00
2019-05-18T19:25:51.959Z,57.48
2019-05-18T19:28:00.098Z,57.23
2019-05-18T19:30:10.334Z,51.02
2019-05-18T19:32:18.280Z,51.92
2019-05-18T19:34:26.404Z,48.73
2019-05-18T19:36:34.322Z,46.25
2019-05-18T19:38:42.677Z,41.40
2019-05-18T19:40:50.711Z,35.15
2019-05-18T19:42:59.650Z,34.75
2019-05-18T19:45:11.441Z,30.70
2019-05-18T19:47:19.392Z,29.50
2019-05-18T19:49:27.393Z,25.05
2019-05-18T19:51:36.430Z,23.45
2019-05-18T19:53:44.479Z,23.40
2019-05-18T19:55:52.375Z,20.52
2019-05-18T19:58:08.515Z,23.15
2019-05-18T20:00:12.997Z,27.05
2019-05-18T20:02:20.957Z,25.27
2019-05-18T20:04:29.140Z,24.80
2019-05-18T20:06:37.460Z,23.42
2019-05-18T20:08:45.553Z,23.52
2019-05-18T20:10:53.952Z,25.20
2019-05-18T20:13:02.049Z,26.62
2019-05-18T20:15:10.788Z,28.30
2019-05-18T20:17:18.709Z,34.20
2019-05-18T20:19:38.553Z,36.58
2019-05-18T20:21:37.402Z,29.52
2019-05-18T20:23:45.306Z,28.80
2019-05-18T20:25:53.248Z,28.27
2019-05-18T20:28:01.235Z,29.60
2019-05-18T20:30:11.827Z,30.05
2019-05-18T20:32:19.833Z,27.17
2019-05-18T20:34:27.889Z,25.17
2019-05-18T20:36:36.054Z,26.05
2019-05-18T20:38:44.576Z,23.25
2019-05-18T20:40:52.559Z,30.17
2019-05-18T20:43:00.562Z,24.92
2019-05-18T20:45:09.590Z,29.72
2019-05-18T20:47:17.560Z,35.28
2019-05-18T20:49:25.548Z,42.60
2019-05-18T20:51:33.490Z,34.08
2019-05-18T20:53:41.469Z,29.85
2019-05-18T20:55:49.534Z,25.27
2019-05-18T20:57:57.544Z,25.77
2019-05-18T21:00:06.550Z,25.88
2019-05-18T21:02:16.148Z,27.98
2019-05-18T21:04:24.171Z,25.82
2019-05-18T21:06:32.070Z,28.15
2019-05-18T21:08:40.192Z,30.75
2019-05-18T21:10:49.211Z,28.80
2019-05-18T21:12:57.108Z,25.23
2019-05-18T21:15:08.236Z,30.27
2019-05-18T21:17:16.704Z,26.60
2019-05-18T21:19:24.699Z,33.53
2019-05-18T21:21:32.599Z,35.25
2019-05-18T21:23:40.584Z,33.95
2019-05-18T21:25:48.478Z,56.33
2019-05-18T21:27:56.770Z,34.67
2019-05-18T21:30:06.693Z,51.80
2019-05-18T21:32:14.595Z,35.70
2019-05-18T21:34:22.482Z,31.27
2019-05-18T21:36:30.399Z,27.15
2019-05-18T21:38:38.292Z,32.70
2019-05-18T21:40:46.328Z,28.27
2019-05-18T21:42:55.270Z,27.90
2019-05-18T21:45:03.442Z,23.00
2019-05-18T21:47:11.741Z,22.80
2019-05-18T21:49:19.889Z,25.52
2019-05-18T21:51:27.947Z,28.65
2019-05-18T21:53:35.936Z,24.43
2019-05-18T21:55:44.191Z,30.37
2019-05-18T21:57:52.330Z,26.30
2019-05-18T22:00:00.736Z,24.37
2019-05-18T22:02:09.867Z,24.12
2019-05-18T22:04:18.060Z,25.32
2019-05-18T22:06:26.063Z,25.52
2019-05-18T22:08:33.994Z,26.60
2019-05-18T22:10:41.882Z,27.27
2019-05-18T22:12:49.883Z,30.25
2019-05-18T22:14:58.032Z,27.80
2019-05-18T22:17:06.419Z,31.15
2019-05-18T22:19:14.313Z,29.42
2019-05-18T22:21:23.257Z,29.20
2019-05-18T22:23:31.256Z,25.97
2019-05-18T22:25:39.167Z,31.27
2019-05-18T22:27:47.357Z,26.82
2019-05-18T22:29:56.721Z,28.40
2019-05-18T22:32:04.677Z,28.20
2019-05-18T22:34:13.004Z,29.50
2019-05-18T22:36:21.028Z,30.27
2019-05-18T22:38:29.384Z,28.32
2019-05-18T22:40:37.454Z,30.17
2019-05-18T22:42:45.823Z,28.38
2019-05-18T22:44:53.713Z,31.00
2019-05-18T22:47:01.746Z,26.80
2019-05-18T22:49:09.722Z,27.48
2019-05-18T22:51:19.342Z,25.37
2019-05-18T22:53:27.368Z,25.85
2019-05-18T22:55:35.766Z,22.05
2019-05-18T22:57:44.049Z,19.92
2019-05-18T22:59:53.012Z,20.82
2019-05-18T23:02:00.977Z,25.48
2019-05-18T23:04:09.479Z,23.52
2019-05-18T23:06:17.423Z,23.00
2019-05-18T23:08:25.455Z,22.00
2019-05-18T23:10:33.444Z,21.10
2019-05-18T23:12:42.472Z,20.05
2019-05-18T23:14:50.397Z,23.92
2019-05-18T23:16:58.287Z,20.90
2019-05-18T23:19:06.707Z,22.82
2019-05-18T23:21:14.600Z,21.33
2019-05-18T23:23:22.686Z,22.55
2019-05-18T23:25:30.712Z,22.60
2019-05-18T23:27:38.598Z,19.85
2019-05-18T23:29:46.492Z,19.87
2019-05-18T23:31:54.497Z,20.57
2019-05-18T23:34:02.465Z,19.73
2019-05-18T23:36:10.821Z,18.42
2019-05-18T23:38:18.841Z,20.27
2019-05-18T23:40:26.820Z,19.95
2019-05-18T23:42:34.778Z,21.02
2019-05-18T23:44:42.903Z,22.77
2019-05-18T23:46:51.071Z,22.30
2019-05-18T23:49:10.073Z,19.62
2019-05-18T23:51:09.633Z,20.27
2019-05-18T23:53:17.528Z,20.70
2019-05-18T23:55:25.656Z,21.10
2019-05-18T23:57:34.762Z,20.68
2019-05-18T23:59:42.637Z,20.30
